Mizpah, Minnesota
Current Conditions -  °F | °C
As of 6:31 PM on Friday 21 Nov 2014 (Local Time) from KVWU Reporting Station
Clear Clear  
Wind Chill: 18°   Ceiling: Unl
Heat Index: 28°   Visibility: 10mi
Dew Point: 21°   Wind: 12mph
Humidity: 74%   Direction: 190°S
Pressure: 29.64"   Gusts: 16mph
Location:  47.92°N, 94.2°W
Report Text: KVWU 220031Z AUTO 19010G14KT 153V223 10SM CLR M02/M06 A2964 RMK AO2
Loading
Personal Weather Stations






























Interactive Weather Map New forecast layout! Learn more

10-Day Weather Forecast

Advertisements
Track Severe Weather on mobile